Time;durP1;ratioP1;P1;durP2;ratioP2;P2;SDS_P1;SDS_P2;PMS_P1;PMS_P2;Temp;Humidity;BMP_temperature;BMP_pressure;BME280_temperature;BME280_humidity;BME280_pressure;Samples;Min_cycle;Max_cycle;Signal;HPM_P1;HPM_P2
2024/03/13 00:00:13;;;;;;;20.77;11.90;;;7.80;99.90;;;;;;5077262;28;20432;-57
2024/03/13 00:02:41;;;;;;;17.73;11.50;;;7.80;99.90;;;;;;5057368;28;20541;-58
2024/03/13 00:05:10;;;;;;;14.50;11.53;;;7.80;99.90;;;;;;5056686;28;20458;-58
2024/03/13 00:07:37;;;;;;;17.53;11.63;;;7.80;99.90;;;;;;5056656;28;20494;-58
2024/03/13 00:10:06;;;;;;;15.30;12.00;;;7.80;99.90;;;;;;5056187;28;20508;-57
2024/03/13 00:12:34;;;;;;;17.63;12.87;;;7.80;99.90;;;;;;5056200;28;20520;-58
2024/03/13 00:15:04;;;;;;;13.53;10.10;;;7.80;99.90;;;;;;5056086;28;20826;-58
2024/03/13 00:17:32;;;;;;;16.20;12.07;;;7.80;96.40;;;;;;5056375;28;20455;-56
2024/03/13 00:19:59;;;;;;;14.33;11.00;;;7.80;72.80;;;;;;5056402;28;20577;-58
2024/03/13 00:22:27;;;;;;;18.00;12.30;;;7.80;39.30;;;;;;5056480;28;20561;-58
2024/03/13 00:24:56;;;;;;;20.63;13.37;;;7.70;41.40;;;;;;5056753;28;20485;-58
2024/03/13 00:27:24;;;;;;;15.73;11.00;;;7.70;99.90;;;;;;5056924;28;20498;-57
2024/03/13 00:29:52;;;;;;;17.00;12.10;;;7.80;99.90;;;;;;5057573;28;20523;-58
2024/03/13 00:32:24;;;;;;;14.70;11.80;;;7.80;99.90;;;;;;5057190;28;20904;-57
2024/03/13 00:34:51;;;;;;;15.57;12.63;;;7.70;1.00;;;;;;5056468;28;20465;-59
2024/03/13 00:37:21;;;;;;;13.73;10.77;;;7.70;1.00;;;;;;5056955;28;20455;-58
2024/03/13 00:39:48;;;;;;;16.30;11.83;;;7.70;1.00;;;;;;5057038;28;20462;-57
2024/03/13 00:42:16;;;;;;;15.80;11.97;;;7.70;56.70;;;;;;5057219;28;20457;-58
2024/03/13 00:44:44;;;;;;;16.47;11.20;;;7.80;93.20;;;;;;5057065;28;20462;-58
2024/03/13 00:47:14;;;;;;;17.77;12.43;;;7.80;99.90;;;;;;5057304;28;20980;-59
2024/03/13 00:49:43;;;;;;;16.63;12.53;;;7.80;99.90;;;;;;5056885;28;20461;-58
2024/03/13 00:52:10;;;;;;;16.60;12.57;;;7.80;99.90;;;;;;5057258;28;20500;-58
2024/03/13 00:54:44;;;;;;;15.00;10.93;;;7.80;1.00;;;;;;5056728;28;21368;-58
2024/03/13 00:57:12;;;;;;;15.40;11.50;;;7.80;1.00;;;;;;5056561;28;20458;-58
2024/03/13 00:59:40;;;;;;;17.67;11.87;;;7.70;1.00;;;;;;5056871;28;20906;-58
2024/03/13 01:02:08;;;;;;;13.77;10.93;;;7.70;99.90;;;;;;5057295;28;20549;-58
2024/03/13 01:04:36;;;;;;;13.80;11.27;;;7.70;99.90;;;;;;5056667;28;20455;-58
2024/03/13 01:07:06;;;;;;;16.30;11.80;;;7.70;1.00;;;;;;5056720;28;20597;-58
2024/03/13 01:09:32;;;;;;;14.53;11.03;;;7.60;75.30;;;;;;5056661;28;20515;-58
2024/03/13 01:12:00;;;;;;;16.63;12.23;;;7.70;99.90;;;;;;5056773;28;20458;-58
2024/03/13 01:14:27;;;;;;;16.00;11.07;;;7.70;1.00;;;;;;5056815;28;20458;-58
2024/03/13 01:16:58;;;;;;;17.27;12.10;;;7.70;99.90;;;;;;5056319;28;20454;-57
2024/03/13 01:19:30;;;;;;;14.77;10.90;;;7.70;99.90;;;;;;5056570;28;20462;-58
2024/03/13 01:22:03;;;;;;;13.70;10.70;;;7.60;99.90;;;;;;5056702;28;20466;-59
2024/03/13 01:24:33;;;;;;;14.93;10.33;;;7.70;99.90;;;;;;5056954;28;20473;-59
2024/03/13 01:27:00;;;;;;;14.33;10.03;;;7.60;99.90;;;;;;5056391;28;20505;-58
2024/03/13 01:29:28;;;;;;;18.17;9.53;;;7.70;99.90;;;;;;5058836;28;20541;-59
2024/03/13 01:31:57;;;;;;;13.67;10.30;;;7.60;1.00;;;;;;5060573;28;20458;-58
2024/03/13 01:34:24;;;;;;;12.50;10.07;;;7.60;1.00;;;;;;5059967;28;20560;-60
2024/03/13 01:39:37;;;;;;;14.23;10.50;;;7.60;1.00;;;;;;5060259;28;20936;-64
2024/03/13 01:56:21;;;;;;;12.43;9.93;;;7.60;99.90;;;;;;5046680;28;20468;-66
2024/03/13 01:58:51;;;;;;;11.63;7.50;;;7.60;99.90;;;;;;5079665;28;20750;-67
2024/03/13 02:04:03;;;;;;;9.90;7.27;;;7.60;99.90;;;;;;5079508;28;20435;-66
2024/03/13 02:06:32;;;;;;;10.57;7.50;;;7.60;99.90;;;;;;5079400;28;20493;-67
2024/03/13 02:08:59;;;;;;;10.70;7.00;;;7.60;99.90;;;;;;5079130;28;20465;-66
2024/03/13 02:11:28;;;;;;;8.33;7.27;;;7.60;99.90;;;;;;5079193;28;20828;-65
2024/03/13 02:13:57;;;;;;;8.50;5.77;;;7.70;99.90;;;;;;5079611;28;20468;-65
2024/03/13 02:16:24;;;;;;;7.83;6.27;;;7.60;99.90;;;;;;5079261;28;20461;-66
2024/03/13 02:18:53;;;;;;;7.10;5.43;;;7.60;99.90;;;;;;5078896;28;20453;-65
2024/03/13 02:21:21;;;;;;;9.10;6.77;;;7.60;99.90;;;;;;5078818;28;20457;-65
2024/03/13 02:23:48;;;;;;;8.73;6.13;;;7.60;99.90;;;;;;5079249;28;20453;-67
2024/03/13 02:26:15;;;;;;;6.57;5.20;;;7.60;99.90;;;;;;5061607;28;20458;-66
2024/03/13 02:28:42;;;;;;;7.40;5.73;;;7.70;99.90;;;;;;5062178;28;20544;-66
2024/03/13 02:31:11;;;;;;;7.80;5.30;;;7.70;99.90;;;;;;5063600;28;20547;-66
2024/03/13 02:33:39;;;;;;;7.40;5.20;;;7.70;99.90;;;;;;5062869;28;20552;-66
2024/03/13 02:36:06;;;;;;;7.60;5.13;;;7.70;99.90;;;;;;5061401;28;20552;-65
2024/03/13 02:38:33;;;;;;;6.70;5.40;;;7.70;99.90;;;;;;5061668;28;20490;-66
2024/03/13 02:41:00;;;;;;;6.67;5.17;;;7.70;99.90;;;;;;5060575;28;20461;-66
2024/03/13 02:43:28;;;;;;;7.67;5.30;;;7.70;99.90;;;;;;5061395;28;20552;-66
2024/03/13 02:45:55;;;;;;;9.53;6.43;;;7.70;99.90;;;;;;5061634;28;20882;-65
2024/03/13 02:48:22;;;;;;;6.20;5.00;;;7.70;99.90;;;;;;5061289;28;20501;-65
2024/03/13 02:50:50;;;;;;;7.90;5.33;;;7.70;99.90;;;;;;5061028;28;20453;-64
2024/03/13 02:53:18;;;;;;;6.77;5.50;;;7.70;99.90;;;;;;5061034;28;20465;-63
2024/03/13 02:55:45;;;;;;;6.63;5.80;;;7.70;99.90;;;;;;5060762;28;20457;-65
2024/03/13 02:58:12;;;;;;;6.30;5.07;;;7.70;99.90;;;;;;5060775;28;20462;-65
2024/03/13 03:00:40;;;;;;;6.90;5.37;;;7.60;99.90;;;;;;5060331;28;20550;-66
2024/03/13 03:03:11;;;;;;;9.03;5.70;;;7.60;99.90;;;;;;5060773;28;20540;-66
2024/03/13 03:05:39;;;;;;;6.90;5.83;;;7.60;99.90;;;;;;5061389;28;20459;-66
2024/03/13 03:08:07;;;;;;;7.23;5.70;;;7.60;99.90;;;;;;5060547;28;20496;-66
2024/03/13 03:10:34;;;;;;;6.50;5.10;;;7.70;99.90;;;;;;5060601;28;20957;-66
2024/03/13 03:13:02;;;;;;;5.90;5.13;;;7.60;99.90;;;;;;5060499;28;20962;-67
2024/03/13 03:15:33;;;;;;;6.00;5.10;;;7.60;99.90;;;;;;5060568;28;20473;-66
2024/03/13 03:18:00;;;;;;;6.00;4.90;;;7.60;99.90;;;;;;5061060;28;20469;-66
2024/03/13 03:20:28;;;;;;;7.70;5.30;;;7.70;99.90;;;;;;5060551;28;20757;-67
2024/03/13 03:22:55;;;;;;;6.60;4.90;;;7.70;99.90;;;;;;5060246;28;20491;-67
2024/03/13 03:25:24;;;;;;;6.40;4.53;;;7.70;99.90;;;;;;5060243;28;20544;-67
2024/03/13 03:27:51;;;;;;;6.50;5.33;;;7.70;99.90;;;;;;5060299;28;20806;-68
2024/03/13 03:30:18;;;;;;;5.60;4.40;;;7.70;99.90;;;;;;5060511;28;20475;-67
2024/03/13 03:32:45;;;;;;;6.40;5.07;;;7.70;99.90;;;;;;5060166;28;20500;-67
2024/03/13 03:35:13;;;;;;;6.27;4.30;;;7.70;99.90;;;;;;5060077;28;20556;-68
2024/03/13 03:37:40;;;;;;;5.40;4.30;;;7.70;99.90;;;;;;5060231;28;20508;-67
2024/03/13 03:40:13;;;;;;;5.50;4.10;;;7.70;99.90;;;;;;5060137;28;20439;-68
2024/03/13 03:42:40;;;;;;;5.87;4.83;;;7.70;99.90;;;;;;5060910;28;20465;-68
2024/03/13 03:45:08;;;;;;;6.37;5.10;;;7.70;99.90;;;;;;5059845;28;20504;-67
2024/03/13 03:47:35;;;;;;;5.93;4.40;;;7.70;99.90;;;;;;5059947;28;20535;-67
2024/03/13 03:50:02;;;;;;;6.20;4.27;;;7.70;99.90;;;;;;5060167;28;20504;-66
2024/03/13 03:52:30;;;;;;;5.83;4.03;;;7.70;99.90;;;;;;5059219;28;20778;-66
2024/03/13 03:54:57;;;;;;;5.67;4.63;;;7.70;99.90;;;;;;5059903;28;20552;-66
2024/03/13 03:57:24;;;;;;;5.60;4.73;;;7.70;99.90;;;;;;5059707;28;20493;-66
2024/03/13 03:59:51;;;;;;;5.00;3.97;;;7.70;99.90;;;;;;5059613;28;20508;-66
2024/03/13 04:02:19;;;;;;;5.70;4.17;;;7.70;99.90;;;;;;5059856;28;20553;-66
2024/03/13 04:04:47;;;;;;;5.20;3.83;;;7.70;99.90;;;;;;5059350;28;20461;-66
2024/03/13 04:07:16;;;;;;;6.63;4.00;;;7.80;99.90;;;;;;5059785;28;20499;-66
2024/03/13 04:09:43;;;;;;;4.40;3.47;;;7.80;99.90;;;;;;5059659;28;20511;-66
2024/03/13 04:12:10;;;;;;;6.37;4.33;;;7.70;99.90;;;;;;5059456;28;20461;-66
2024/03/13 04:14:37;;;;;;;5.50;4.47;;;7.70;99.90;;;;;;5059637;28;20550;-66
2024/03/13 04:17:05;;;;;;;5.40;4.17;;;7.70;99.90;;;;;;5059807;28;20475;-66
2024/03/13 04:19:32;;;;;;;4.70;3.90;;;7.80;99.90;;;;;;5059252;28;20462;-66
2024/03/13 04:21:59;;;;;;;4.17;3.70;;;7.80;99.90;;;;;;5059353;28;20500;-65
2024/03/13 04:24:27;;;;;;;4.83;3.97;;;7.80;99.90;;;;;;5059700;28;20453;-65
2024/03/13 04:26:54;;;;;;;4.60;3.83;;;7.70;99.90;;;;;;5059557;28;20855;-65
2024/03/13 04:29:21;;;;;;;5.93;4.43;;;7.70;99.90;;;;;;5059389;28;20546;-66
2024/03/13 04:31:49;;;;;;;5.30;4.17;;;7.80;99.90;;;;;;5059429;28;20518;-65
2024/03/13 04:34:16;;;;;;;4.30;3.73;;;7.80;99.90;;;;;;5059231;28;20818;-66
2024/03/13 04:36:44;;;;;;;4.50;3.60;;;7.80;99.90;;;;;;5058862;28;20631;-66
2024/03/13 04:39:11;;;;;;;6.33;3.93;;;7.80;99.90;;;;;;5059729;28;20933;-67
2024/03/13 04:41:40;;;;;;;6.30;3.93;;;7.80;99.90;;;;;;5059063;28;20507;-67
2024/03/13 04:44:09;;;;;;;5.47;3.87;;;7.80;99.90;;;;;;5059794;28;20449;-66
2024/03/13 04:46:36;;;;;;;6.77;5.20;;;7.80;99.90;;;;;;5059871;28;20457;-67
2024/03/13 04:49:04;;;;;;;4.03;3.63;;;7.80;99.90;;;;;;5058930;28;20539;-66
2024/03/13 04:51:31;;;;;;;4.40;3.63;;;7.80;99.90;;;;;;5059675;28;20453;-66
2024/03/13 04:53:59;;;;;;;5.00;4.20;;;7.80;99.90;;;;;;5058927;28;20972;-67
2024/03/13 04:56:26;;;;;;;4.93;4.20;;;7.80;99.90;;;;;;5057820;28;20543;-67
2024/03/13 04:58:53;;;;;;;5.03;4.00;;;7.80;99.90;;;;;;5057872;28;20769;-67
2024/03/13 05:01:20;;;;;;;5.40;3.70;;;7.80;99.90;;;;;;5057677;28;20487;-67
2024/03/13 05:03:49;;;;;;;5.00;3.93;;;7.80;99.90;;;;;;5058420;28;20472;-67
2024/03/13 05:06:16;;;;;;;4.33;3.67;;;7.80;99.90;;;;;;5061881;28;20890;-67
2024/03/13 05:08:46;;;;;;;5.30;4.40;;;7.80;99.90;;;;;;5061294;28;20590;-67
2024/03/13 05:11:14;;;;;;;4.20;3.63;;;7.80;99.90;;;;;;5062825;28;20457;-67
2024/03/13 05:13:41;;;;;;;5.00;4.17;;;7.80;99.90;;;;;;5063049;28;20465;-67
2024/03/13 05:16:09;;;;;;;6.10;4.00;;;7.80;99.90;;;;;;5063182;28;20471;-67
2024/03/13 05:18:37;;;;;;;4.43;3.83;;;7.80;99.90;;;;;;5062780;28;20870;-67
2024/03/13 05:21:04;;;;;;;5.90;3.50;;;7.80;99.90;;;;;;5062762;28;20464;-67
2024/03/13 05:23:32;;;;;;;5.33;4.13;;;7.80;99.90;;;;;;5062514;28;20951;-66
2024/03/13 05:25:59;;;;;;;4.80;4.17;;;7.80;99.90;;;;;;5062715;28;20457;-65
2024/03/13 05:28:28;;;;;;;4.80;4.30;;;7.80;99.90;;;;;;5062535;28;20990;-65
2024/03/13 05:30:55;;;;;;;5.13;4.03;;;7.90;99.90;;;;;;5062361;28;20457;-64
2024/03/13 05:33:23;;;;;;;5.20;4.30;;;7.90;99.90;;;;;;5062204;28;20960;-65
2024/03/13 05:35:50;;;;;;;5.33;4.23;;;7.90;99.90;;;;;;5062013;28;20487;-65
2024/03/13 05:38:17;;;;;;;6.00;4.43;;;7.90;99.90;;;;;;5062163;28;20898;-66
2024/03/13 05:40:44;;;;;;;4.57;3.93;;;7.90;99.90;;;;;;5062042;28;20890;-64
2024/03/13 05:43:12;;;;;;;5.07;4.50;;;7.90;99.90;;;;;;5061660;28;20556;-62
2024/03/13 05:45:39;;;;;;;5.67;4.83;;;7.90;99.90;;;;;;5062183;28;20544;-62
2024/03/13 05:48:08;;;;;;;5.20;4.40;;;7.90;99.90;;;;;;5061896;28;20584;-62
2024/03/13 05:50:35;;;;;;;5.87;5.13;;;7.90;99.90;;;;;;5062344;28;20578;-62
2024/03/13 05:53:03;;;;;;;6.43;5.07;;;7.90;99.90;;;;;;5061870;28;20465;-62
2024/03/13 05:55:31;;;;;;;6.77;5.00;;;7.90;99.90;;;;;;5061196;28;20457;-64
2024/03/13 05:57:58;;;;;;;5.30;4.67;;;8.00;99.90;;;;;;5060970;28;20460;-63
2024/03/13 06:00:26;;;;;;;6.50;5.23;;;7.90;99.90;;;;;;5061212;28;20461;-62
2024/03/13 06:02:53;;;;;;;5.67;4.23;;;8.00;99.90;;;;;;5061758;28;20752;-62
2024/03/13 06:05:21;;;;;;;5.27;4.43;;;8.00;99.90;;;;;;5061325;28;20539;-63
2024/03/13 06:07:55;;;;;;;5.33;4.00;;;8.00;99.90;;;;;;5061168;28;20518;-62
2024/03/13 06:10:22;;;;;;;6.10;4.73;;;7.90;99.90;;;;;;5062781;28;20489;-63
2024/03/13 06:12:49;;;;;;;5.00;4.30;;;8.00;99.90;;;;;;5061361;28;20783;-62
2024/03/13 06:15:17;;;;;;;4.93;4.20;;;8.00;99.90;;;;;;5061090;28;20972;-62
2024/03/13 06:17:45;;;;;;;5.47;4.87;;;8.00;99.90;;;;;;5061045;28;20891;-63
2024/03/13 06:20:13;;;;;;;4.87;4.03;;;8.00;99.90;;;;;;5061384;28;20461;-62
2024/03/13 06:22:41;;;;;;;6.00;4.63;;;8.00;99.90;;;;;;5061555;28;20461;-63
2024/03/13 06:25:09;;;;;;;5.10;4.60;;;8.10;99.90;;;;;;5061731;28;20867;-63
2024/03/13 06:27:36;;;;;;;6.30;4.50;;;8.10;99.90;;;;;;5061302;28;20481;-64
2024/03/13 06:30:02;;;;;;;8.20;5.70;;;8.10;99.90;;;;;;5061432;28;20486;-65
2024/03/13 06:32:29;;;;;;;6.27;4.30;;;8.10;99.90;;;;;;5061391;28;20740;-66
2024/03/13 06:34:56;;;;;;;9.37;6.10;;;8.10;99.90;;;;;;5061564;28;20468;-66
2024/03/13 06:37:24;;;;;;;5.07;3.57;;;8.10;99.90;;;;;;5061143;28;20451;-65
2024/03/13 06:39:51;;;;;;;4.97;4.03;;;8.10;99.90;;;;;;5060423;28;20619;-66
2024/03/13 06:42:19;;;;;;;4.80;3.80;;;8.10;99.90;;;;;;5059974;28;20523;-66
2024/03/13 06:44:47;;;;;;;5.43;4.50;;;8.10;99.90;;;;;;5059756;28;20454;-65
2024/03/13 06:47:14;;;;;;;6.30;3.90;;;8.20;99.90;;;;;;5059739;28;20511;-65
2024/03/13 06:49:43;;;;;;;6.13;4.60;;;8.20;99.90;;;;;;5059735;28;20608;-68
2024/03/13 06:52:12;;;;;;;5.67;5.07;;;8.20;99.90;;;;;;5059709;28;20492;-65
2024/03/13 06:54:40;;;;;;;4.30;3.90;;;8.20;99.90;;;;;;5060989;28;20534;-65
2024/03/13 06:57:09;;;;;;;4.60;3.80;;;8.20;99.90;;;;;;5060937;28;20511;-64
2024/03/13 06:59:36;;;;;;;6.23;3.93;;;8.30;99.90;;;;;;5061461;28;20523;-64
2024/03/13 07:02:04;;;;;;;4.70;3.70;;;8.30;99.90;;;;;;5059981;28;20459;-65
2024/03/13 07:04:31;;;;;;;4.43;3.70;;;8.30;99.90;;;;;;5059549;28;20600;-65
2024/03/13 07:06:59;;;;;;;6.43;3.97;;;8.30;99.90;;;;;;5059201;28;20461;-65
2024/03/13 07:09:27;;;;;;;4.40;3.50;;;8.30;99.90;;;;;;5058700;28;20500;-66
2024/03/13 07:11:54;;;;;;;4.97;3.10;;;8.40;99.90;;;;;;5059282;28;20508;-66
2024/03/13 07:14:21;;;;;;;4.33;3.90;;;8.40;99.90;;;;;;5059270;28;20461;-66
2024/03/13 07:16:49;;;;;;;4.50;3.60;;;8.50;99.90;;;;;;5059578;28;20457;-66
2024/03/13 07:19:18;;;;;;;4.30;3.03;;;8.50;99.90;;;;;;5061090;28;20482;-65
2024/03/13 07:21:50;;;;;;;4.87;3.50;;;8.60;99.90;;;;;;5060840;28;20465;-66
2024/03/13 07:24:17;;;;;;;4.73;2.90;;;8.60;99.90;;;;;;5061639;28;20768;-66
2024/03/13 07:26:45;;;;;;;5.10;3.80;;;8.70;99.90;;;;;;5059498;28;20481;-66
2024/03/13 07:29:12;;;;;;;5.57;3.90;;;8.70;99.90;;;;;;5060468;28;20485;-66
2024/03/13 07:31:39;;;;;;;4.63;3.73;;;8.70;99.90;;;;;;5060702;28;20506;-66
2024/03/13 07:34:09;;;;;;;5.50;3.63;;;8.70;99.90;;;;;;5060112;28;20559;-65
2024/03/13 07:36:37;;;;;;;4.70;3.53;;;8.80;99.90;;;;;;5060246;28;20797;-66
2024/03/13 07:39:10;;;;;;;5.90;3.70;;;8.90;99.90;;;;;;5060624;28;20462;-67
2024/03/13 07:41:38;;;;;;;4.83;3.87;;;8.90;99.90;;;;;;5061093;28;20453;-65
2024/03/13 07:44:07;;;;;;;5.00;3.77;;;9.00;99.90;;;;;;5060464;28;20803;-64
2024/03/13 07:46:34;;;;;;;4.27;3.30;;;9.00;99.90;;;;;;5059954;28;20446;-64
2024/03/13 07:49:01;;;;;;;5.70;3.93;;;9.00;99.90;;;;;;5058990;28;20485;-64
2024/03/13 07:51:29;;;;;;;7.10;3.33;;;9.10;99.90;;;;;;5060032;28;20453;-64
2024/03/13 07:53:56;;;;;;;4.07;3.53;;;9.10;99.90;;;;;;5060069;28;20461;-64
2024/03/13 07:56:23;;;;;;;4.43;3.63;;;9.10;99.90;;;;;;5059965;28;20457;-66
2024/03/13 07:58:51;;;;;;;4.20;3.30;;;9.10;99.90;;;;;;5060353;28;20461;-66
2024/03/13 08:01:18;;;;;;;6.50;4.40;;;9.20;99.90;;;;;;5059934;28;20548;-66
2024/03/13 08:03:46;;;;;;;6.67;3.87;;;9.30;99.90;;;;;;5059961;28;20890;-65
2024/03/13 08:06:14;;;;;;;13.00;7.87;;;9.30;99.90;;;;;;5059894;28;20483;-65
2024/03/13 08:08:41;;;;;;;15.27;9.87;;;9.30;99.90;;;;;;5058375;28;20459;-66
2024/03/13 08:11:08;;;;;;;20.13;13.30;;;9.40;99.90;;;;;;5059530;28;20457;-65
2024/03/13 08:13:36;;;;;;;6.37;4.73;;;9.40;99.90;;;;;;5059758;28;20492;-66
2024/03/13 08:16:03;;;;;;;25.33;14.67;;;9.50;99.90;;;;;;5059424;28;20550;-65
2024/03/13 08:18:31;;;;;;;12.00;8.53;;;9.50;99.90;;;;;;5059803;28;20503;-65
2024/03/13 08:20:58;;;;;;;7.03;6.10;;;9.50;99.90;;;;;;5060010;28;20905;-66
2024/03/13 08:23:25;;;;;;;6.30;4.23;;;9.50;99.90;;;;;;5058651;28;20512;-65
2024/03/13 08:25:52;;;;;;;5.13;3.27;;;9.50;99.90;;;;;;5059462;28;20459;-65
2024/03/13 08:28:20;;;;;;;4.63;3.10;;;9.60;99.90;;;;;;5058180;28;20922;-65
2024/03/13 08:30:47;;;;;;;4.93;3.10;;;9.60;99.90;;;;;;5057903;28;20449;-65
2024/03/13 08:33:16;;;;;;;4.70;3.70;;;9.60;99.90;;;;;;5057724;28;20457;-65
2024/03/13 08:35:44;;;;;;;5.60;3.77;;;9.70;99.90;;;;;;5058279;28;20457;-65
2024/03/13 08:38:11;;;;;;;5.77;3.40;;;9.70;99.90;;;;;;5058242;28;20867;-66
2024/03/13 08:40:38;;;;;;;4.23;3.17;;;9.80;99.90;;;;;;5061936;28;20468;-66
2024/03/13 08:43:06;;;;;;;3.70;2.70;;;9.80;99.90;;;;;;5062376;28;20460;-65
2024/03/13 08:45:34;;;;;;;4.40;3.17;;;9.90;99.90;;;;;;5063701;28;20488;-66
2024/03/13 08:48:03;;;;;;;4.33;3.50;;;10.00;99.90;;;;;;5063672;28;20526;-65
2024/03/13 08:50:30;;;;;;;4.93;3.33;;;10.00;99.90;;;;;;5063577;28;20531;-64
2024/03/13 08:52:57;;;;;;;4.93;3.40;;;10.10;99.90;;;;;;5062745;28;20485;-63
2024/03/13 08:55:25;;;;;;;3.57;2.80;;;10.30;99.90;;;;;;5062937;28;20457;-62
2024/03/13 08:57:53;;;;;;;6.10;2.47;;;10.50;99.90;;;;;;5063189;28;20457;-63
2024/03/13 09:00:22;;;;;;;3.50;2.70;;;10.70;99.90;;;;;;5063383;28;20511;-62
2024/03/13 09:02:53;;;;;;;4.37;2.60;;;10.70;99.90;;;;;;5063032;28;20456;-63
2024/03/13 09:05:21;;;;;;;3.57;2.70;;;10.60;99.90;;;;;;5063341;28;20503;-62
2024/03/13 09:07:48;;;;;;;3.47;2.70;;;10.70;99.90;;;;;;5063040;28;20785;-63
2024/03/13 09:10:18;;;;;;;2.97;2.30;;;10.80;99.90;;;;;;5061642;28;20558;-64
2024/03/13 09:12:46;;;;;;;3.47;2.60;;;10.80;99.90;;;;;;5062556;28;20457;-64
2024/03/13 09:15:13;;;;;;;9.90;2.97;;;10.80;99.90;;;;;;5062507;28;20469;-63
2024/03/13 09:17:41;;;;;;;7.87;4.60;;;10.90;99.90;;;;;;5062268;28;20830;-63
2024/03/13 09:20:08;;;;;;;5.70;4.67;;;11.10;99.90;;;;;;5062502;28;20887;-65
2024/03/13 09:22:35;;;;;;;4.70;3.80;;;10.90;99.90;;;;;;5061588;28;20445;-66
2024/03/13 09:25:03;;;;;;;3.70;3.30;;;11.00;99.90;;;;;;5062423;28;20506;-66
2024/03/13 09:27:30;;;;;;;3.63;2.80;;;10.90;99.90;;;;;;5062001;28;20520;-65
2024/03/13 09:30:00;;;;;;;3.53;2.93;;;10.90;99.90;;;;;;5062779;28;20873;-66
2024/03/13 09:32:28;;;;;;;2.83;1.90;;;10.90;99.90;;;;;;5062844;28;20460;-65
2024/03/13 09:34:55;;;;;;;3.80;2.27;;;10.90;99.90;;;;;;5062279;28;20561;-64
2024/03/13 09:37:24;;;;;;;2.77;1.90;;;10.80;99.90;;;;;;5062333;28;20456;-64
2024/03/13 09:39:52;;;;;;;3.90;2.00;;;10.80;99.90;;;;;;5062472;28;20460;-64
2024/03/13 09:42:21;;;;;;;4.37;2.43;;;10.90;99.90;;;;;;5062254;28;20457;-64
2024/03/13 09:44:48;;;;;;;3.00;2.03;;;11.00;99.90;;;;;;5061633;28;20886;-66
2024/03/13 09:47:16;;;;;;;2.70;1.90;;;11.00;99.90;;;;;;5062426;28;20468;-65
2024/03/13 09:49:43;;;;;;;2.63;2.10;;;11.00;99.90;;;;;;5061630;28;20786;-65
2024/03/13 09:52:12;;;;;;;3.10;2.00;;;11.10;99.90;;;;;;5062372;28;20507;-66
2024/03/13 09:54:41;;;;;;;2.70;2.10;;;11.00;99.90;;;;;;5062222;28;20461;-65
2024/03/13 09:57:08;;;;;;;2.87;1.87;;;11.10;99.90;;;;;;5061171;28;20458;-66
2024/03/13 09:59:36;;;;;;;4.47;2.53;;;11.20;99.90;;;;;;5060557;28;20461;-66
2024/03/13 10:02:03;;;;;;;3.10;2.20;;;11.30;99.90;;;;;;5061808;28;20457;-66
2024/03/13 10:04:31;;;;;;;3.00;2.33;;;11.30;99.90;;;;;;5061642;28;20811;-66
2024/03/13 10:06:59;;;;;;;3.40;2.30;;;11.30;99.90;;;;;;5061971;28;20449;-66
2024/03/13 10:09:28;;;;;;;3.53;2.57;;;11.20;99.90;;;;;;5060256;28;20496;-66
2024/03/13 10:11:57;;;;;;;3.47;2.60;;;11.40;99.90;;;;;;5061570;28;20465;-66
2024/03/13 10:14:25;;;;;;;3.20;2.63;;;11.30;99.90;;;;;;5061329;28;20480;-65
2024/03/13 10:16:52;;;;;;;3.87;2.83;;;11.50;99.90;;;;;;5061540;28;20514;-66
2024/03/13 10:19:20;;;;;;;3.40;2.70;;;11.40;99.90;;;;;;5060621;28;20544;-66
2024/03/13 10:21:49;;;;;;;5.53;4.33;;;11.60;99.90;;;;;;5060046;28;20783;-65
2024/03/13 10:24:18;;;;;;;3.90;3.50;;;11.60;99.90;;;;;;5061089;28;20457;-65
2024/03/13 10:26:46;;;;;;;5.87;4.57;;;11.70;99.90;;;;;;5060511;28;20485;-66
2024/03/13 10:29:14;;;;;;;3.90;3.17;;;11.80;99.90;;;;;;5060843;28;20892;-66
2024/03/13 10:31:41;;;;;;;3.77;2.93;;;11.70;99.90;;;;;;5060185;28;20460;-66
2024/03/13 10:34:09;;;;;;;3.57;2.83;;;11.60;99.90;;;;;;5059744;28;20445;-66
2024/03/13 10:36:38;;;;;;;5.27;3.50;;;11.60;99.90;;;;;;5059551;28;20454;-67
2024/03/13 10:39:05;;;;;;;6.90;4.70;;;11.50;99.90;;;;;;5059922;28;20823;-65
2024/03/13 10:41:32;;;;;;;5.07;3.80;;;11.50;99.90;;;;;;5058978;28;20460;-67
2024/03/13 10:44:00;;;;;;;6.13;4.70;;;11.40;99.90;;;;;;5059369;28;20454;-66
2024/03/13 10:46:27;;;;;;;6.60;4.87;;;11.50;99.90;;;;;;5059612;28;20905;-66
2024/03/13 10:48:55;;;;;;;7.93;6.03;;;11.50;99.90;;;;;;5060683;28;20780;-66
2024/03/13 10:51:23;;;;;;;7.30;6.23;;;11.40;99.90;;;;;;5060783;28;20466;-67
2024/03/13 10:53:51;;;;;;;10.77;7.83;;;11.40;99.90;;;;;;5059958;28;20503;-66
2024/03/13 10:56:19;;;;;;;11.30;7.93;;;11.40;99.90;;;;;;5058954;28;20485;-66
2024/03/13 10:58:46;;;;;;;8.80;7.20;;;11.60;99.90;;;;;;5059004;28;20457;-65
2024/03/13 11:01:16;;;;;;;9.23;7.20;;;11.80;99.90;;;;;;5058247;28;20460;-66
2024/03/13 11:03:45;;;;;;;7.40;6.60;;;11.70;99.90;;;;;;5059103;28;20457;-65
2024/03/13 11:06:14;;;;;;;8.17;5.80;;;11.40;99.90;;;;;;5060007;28;20458;-66
2024/03/13 11:08:42;;;;;;;7.30;6.00;;;11.50;99.90;;;;;;5059572;28;20461;-65
2024/03/13 11:11:11;;;;;;;9.67;6.57;;;11.40;99.90;;;;;;5059692;28;20488;-67
2024/03/13 11:13:39;;;;;;;7.07;6.37;;;11.40;99.90;;;;;;5059884;28;20453;-67
2024/03/13 11:16:07;;;;;;;10.10;8.10;;;11.60;99.90;;;;;;5057973;28;20769;-66
2024/03/13 11:18:34;;;;;;;10.70;7.83;;;11.60;99.90;;;;;;5058248;28;20453;-66
2024/03/13 11:21:02;;;;;;;10.30;8.13;;;11.60;99.90;;;;;;5058513;28;20492;-66
2024/03/13 11:23:30;;;;;;;11.77;8.33;;;11.50;99.90;;;;;;5058977;28;20454;-66
2024/03/13 11:25:58;;;;;;;10.30;7.60;;;11.60;99.90;;;;;;5058654;28;20731;-66
2024/03/13 11:28:26;;;;;;;10.23;8.00;;;11.50;99.90;;;;;;5058375;28;20484;-66
2024/03/13 11:30:54;;;;;;;10.10;8.50;;;11.40;99.90;;;;;;5058612;28;20552;-66
2024/03/13 11:33:22;;;;;;;9.83;8.33;;;11.50;99.90;;;;;;5057994;28;20509;-66
2024/03/13 11:35:49;;;;;;;10.00;8.57;;;11.30;99.90;;;;;;5059051;28;20567;-67
2024/03/13 11:38:17;;;;;;;12.90;9.03;;;11.30;99.90;;;;;;5059256;28;20485;-66
2024/03/13 11:40:44;;;;;;;10.73;8.70;;;11.30;99.90;;;;;;5057608;28;20902;-66
2024/03/13 11:43:14;;;;;;;10.63;8.63;;;11.40;99.90;;;;;;5057978;28;20461;-66
2024/03/13 11:45:45;;;;;;;9.90;8.50;;;11.40;99.90;;;;;;5058404;28;20468;-68
2024/03/13 11:48:15;;;;;;;9.60;8.60;;;11.50;99.90;;;;;;5058135;28;20457;-67
2024/03/13 11:51:07;;;;;;;11.80;8.60;;;11.50;99.90;;;;;;5057643;28;20973;-66
2024/03/13 11:53:40;;;;;;;9.17;7.77;;;11.40;99.90;;;;;;5074377;28;20457;-66
2024/03/13 11:56:09;;;;;;;10.77;7.70;;;11.40;99.90;;;;;;5059574;28;20504;-66
2024/03/13 11:58:38;;;;;;;9.80;7.93;;;11.40;99.90;;;;;;5059360;28;20477;-67
2024/03/13 12:01:08;;;;;;;9.63;8.57;;;11.40;99.90;;;;;;5059498;28;20804;-67
2024/03/13 12:03:39;;;;;;;9.40;7.83;;;11.50;99.90;;;;;;5059573;28;20456;-67
2024/03/13 12:06:10;;;;;;;8.90;8.00;;;11.60;99.90;;;;;;5059719;28;20457;-67
2024/03/13 12:08:38;;;;;;;9.73;8.00;;;11.60;99.90;;;;;;5059464;28;20457;-67
2024/03/13 12:11:06;;;;;;;11.63;8.57;;;11.50;99.90;;;;;;5058986;28;20529;-66
2024/03/13 12:13:33;;;;;;;9.47;7.97;;;11.40;99.90;;;;;;5059051;28;20918;-66
2024/03/13 12:16:01;;;;;;;9.70;7.60;;;11.40;99.90;;;;;;5060035;28;20461;-66
2024/03/13 12:18:29;;;;;;;14.23;8.43;;;11.40;99.90;;;;;;5060069;28;20488;-66
2024/03/13 12:20:57;;;;;;;9.03;7.90;;;11.40;99.90;;;;;;5059897;28;20475;-66
2024/03/13 12:23:24;;;;;;;13.87;11.33;;;11.40;99.90;;;;;;5059636;28;20889;-67
2024/03/13 12:25:52;;;;;;;9.20;7.77;;;11.50;99.90;;;;;;5059934;28;20949;-66
2024/03/13 12:28:20;;;;;;;9.07;8.13;;;11.50;99.90;;;;;;5059273;28;20798;-66
2024/03/13 12:30:49;;;;;;;9.33;8.00;;;11.40;99.90;;;;;;5059385;28;20547;-66
2024/03/13 12:33:16;;;;;;;9.57;7.47;;;11.50;99.90;;;;;;5059319;28;20511;-66
2024/03/13 12:35:47;;;;;;;10.47;7.40;;;11.50;99.90;;;;;;5058759;28;20457;-66
2024/03/13 12:38:14;;;;;;;12.83;9.37;;;11.50;99.90;;;;;;5059882;28;20461;-66
2024/03/13 12:40:44;;;;;;;9.70;8.50;;;11.60;99.90;;;;;;5059358;28;20459;-67
2024/03/13 12:43:14;;;;;;;10.60;7.83;;;11.60;99.90;;;;;;5059041;28;20514;-66
2024/03/13 12:45:41;;;;;;;10.80;8.80;;;11.60;99.90;;;;;;5059933;28;20753;-67
2024/03/13 12:48:09;;;;;;;11.23;9.53;;;11.60;99.90;;;;;;5059251;28;20449;-67
2024/03/13 12:50:36;;;;;;;12.00;9.83;;;11.60;99.90;;;;;;5059606;28;20484;-66
2024/03/13 12:53:04;;;;;;;10.40;8.97;;;11.50;99.90;;;;;;5059398;28;20465;-67
2024/03/13 12:55:34;;;;;;;11.20;9.57;;;11.50;99.90;;;;;;5059493;28;20469;-66
2024/03/13 12:58:05;;;;;;;10.53;9.10;;;11.40;99.90;;;;;;5058504;28;20461;-67
2024/03/13 13:00:36;;;;;;;10.60;9.50;;;11.50;99.90;;;;;;5072530;28;20465;-66
2024/03/13 13:03:05;;;;;;;11.77;9.40;;;11.50;99.90;;;;;;5056728;28;20568;-66
2024/03/13 13:05:33;;;;;;;9.93;7.70;;;11.50;99.90;;;;;;5057399;28;20468;-66
2024/03/13 13:08:00;;;;;;;10.03;6.90;;;11.40;99.90;;;;;;5057283;28;20747;-66
2024/03/13 13:10:29;;;;;;;11.07;8.40;;;11.50;99.90;;;;;;5057743;28;20484;-66
2024/03/13 13:12:57;;;;;;;9.57;8.57;;;11.60;99.90;;;;;;5058673;28;20941;-66